createdAt,value
2022-09-12T00:01:05.359Z,100.00
2022-09-12T00:03:33.241Z,100.00
2022-09-12T00:06:01.342Z,100.00
2022-09-12T00:08:29.409Z,100.00
2022-09-12T00:10:58.703Z,100.00
2022-09-12T00:13:26.549Z,100.00
2022-09-12T00:15:54.465Z,100.00
2022-09-12T00:18:22.366Z,100.00
2022-09-12T00:20:50.304Z,100.00
2022-09-12T00:23:18.363Z,100.00
2022-09-12T00:25:48.293Z,100.00
2022-09-12T00:28:19.207Z,100.00
2022-09-12T00:30:49.026Z,100.00
2022-09-12T00:33:18.037Z,100.00
2022-09-12T00:35:47.997Z,100.00
2022-09-12T00:38:17.264Z,100.00
2022-09-12T00:40:45.765Z,100.00
2022-09-12T00:43:15.917Z,100.00
2022-09-12T00:45:45.505Z,100.00
2022-09-12T00:48:22.547Z,100.00
2022-09-12T00:50:51.410Z,100.00
2022-09-12T00:53:20.425Z,100.00
2022-09-12T00:55:52.468Z,100.00
2022-09-12T00:58:24.281Z,100.00
2022-09-12T01:00:53.679Z,100.00
2022-09-12T01:03:24.321Z,100.00
2022-09-12T01:06:02.953Z,100.00
2022-09-12T01:08:31.113Z,100.00
2022-09-12T01:10:59.175Z,100.00
2022-09-12T01:13:27.658Z,100.00
2022-09-12T01:15:57.731Z,100.00
2022-09-12T01:18:32.260Z,100.00
2022-09-12T01:21:16.710Z,100.00
2022-09-12T01:24:08.742Z,100.00
2022-09-12T01:26:59.296Z,100.00
2022-09-12T01:29:45.052Z,100.00
2022-09-12T01:32:22.638Z,100.00
2022-09-12T01:34:55.777Z,100.00
2022-09-12T01:37:33.302Z,100.00
2022-09-12T01:40:15.894Z,100.00
2022-09-12T01:42:50.743Z,100.00
2022-09-12T01:45:25.561Z,100.00
2022-09-12T01:47:59.993Z,100.00
2022-09-12T01:50:32.889Z,100.00
2022-09-12T01:53:06.028Z,100.00
2022-09-12T01:55:38.810Z,100.00
2022-09-12T01:58:13.332Z,100.00
2022-09-12T02:00:48.295Z,100.00
2022-09-12T02:03:21.594Z,100.00
2022-09-12T02:05:54.300Z,100.00
2022-09-12T02:08:27.141Z,100.00
2022-09-12T02:11:00.334Z,100.00
2022-09-12T02:13:33.399Z,100.00
2022-09-12T02:16:09.535Z,100.00
2022-09-12T02:18:42.203Z,100.00
2022-09-12T02:21:10.460Z,100.00
2022-09-12T02:23:42.149Z,100.00
2022-09-12T02:26:16.600Z,100.00
2022-09-12T02:28:44.850Z,100.00
2022-09-12T02:31:20.364Z,100.00
2022-09-12T02:33:54.535Z,100.00
2022-09-12T02:36:33.374Z,100.00
2022-09-12T02:39:01.461Z,100.00
2022-09-12T02:41:29.665Z,100.00
2022-09-12T02:43:58.012Z,100.00
2022-09-12T02:46:30.754Z,100.00
2022-09-12T02:49:00.556Z,100.00
2022-09-12T02:51:28.844Z,100.00
2022-09-12T02:53:57.127Z,100.00
2022-09-12T02:56:28.408Z,100.00
2022-09-12T02:58:59.979Z,100.00
2022-09-12T03:01:38.476Z,100.00
2022-09-12T03:04:28.224Z,100.00
2022-09-12T03:07:09.187Z,100.00
2022-09-12T03:09:44.617Z,100.00
2022-09-12T03:12:23.679Z,100.00
2022-09-12T03:15:05.770Z,100.00
2022-09-12T03:17:50.563Z,100.00
2022-09-12T03:20:31.855Z,100.00
2022-09-12T03:23:04.244Z,100.00
2022-09-12T03:25:37.286Z,100.00
2022-09-12T03:28:09.389Z,100.00
2022-09-12T03:30:40.691Z,100.00
2022-09-12T03:33:13.261Z,100.00
2022-09-12T03:35:43.699Z,100.00
2022-09-12T03:38:11.805Z,100.00
2022-09-12T03:40:40.172Z,100.00
2022-09-12T03:43:09.485Z,100.00
2022-09-12T03:45:38.263Z,100.00
2022-09-12T03:48:07.624Z,100.00
2022-09-12T03:50:35.629Z,100.00
2022-09-12T03:53:05.286Z,100.00
2022-09-12T03:55:33.157Z,100.00
2022-09-12T03:58:01.354Z,100.00
2022-09-12T04:00:29.248Z,100.00
2022-09-12T04:02:58.389Z,100.00
2022-09-12T04:05:27.337Z,100.00
2022-09-12T04:07:55.255Z,100.00
2022-09-12T04:10:24.544Z,100.00
2022-09-12T04:12:52.344Z,100.00
2022-09-12T04:15:20.577Z,100.00
2022-09-12T04:17:48.439Z,100.00
2022-09-12T04:20:16.775Z,100.00
2022-09-12T04:22:44.714Z,100.00
2022-09-12T04:25:13.328Z,100.00
2022-09-12T04:27:42.898Z,100.00
2022-09-12T04:30:11.615Z,100.00
2022-09-12T04:32:40.912Z,100.00
2022-09-12T04:35:09.152Z,100.00
2022-09-12T04:37:36.980Z,100.00
2022-09-12T04:40:05.591Z,100.00
2022-09-12T04:42:33.577Z,100.00
2022-09-12T04:45:03.551Z,100.00
2022-09-12T04:47:31.454Z,100.00
2022-09-12T04:49:59.235Z,100.00
2022-09-12T04:52:27.099Z,100.00
2022-09-12T04:54:55.064Z,100.00
2022-09-12T04:57:22.986Z,100.00
2022-09-12T04:59:50.801Z,100.00
2022-09-12T05:02:20.270Z,100.00
2022-09-12T05:04:48.127Z,100.00
2022-09-12T05:07:16.008Z,100.00
2022-09-12T05:09:43.912Z,100.00
2022-09-12T05:12:11.927Z,100.00
2022-09-12T05:14:40.580Z,100.00
2022-09-12T05:17:08.448Z,100.00
2022-09-12T05:19:38.144Z,100.00
2022-09-12T05:22:07.074Z,100.00
2022-09-12T05:24:35.284Z,100.00
2022-09-12T05:27:04.743Z,100.00
2022-09-12T05:29:34.123Z,100.00
2022-09-12T05:32:02.258Z,100.00
2022-09-12T05:34:30.142Z,100.00
2022-09-12T05:36:59.520Z,100.00
2022-09-12T05:39:27.462Z,100.00
2022-09-12T05:41:56.345Z,100.00
2022-09-12T05:44:25.030Z,100.00
2022-09-12T05:46:53.655Z,100.00
2022-09-12T05:49:22.669Z,100.00
2022-09-12T05:51:51.569Z,100.00
2022-09-12T05:54:21.281Z,100.00
2022-09-12T05:56:49.442Z,100.00
2022-09-12T05:59:19.007Z,100.00
2022-09-12T06:01:47.331Z,100.00
2022-09-12T06:04:15.825Z,100.00
2022-09-12T06:06:45.619Z,100.00
2022-09-12T06:09:15.008Z,100.00
2022-09-12T06:11:45.768Z,100.00
2022-09-12T06:14:15.850Z,100.00
2022-09-12T06:16:43.973Z,100.00
2022-09-12T06:19:16.362Z,100.00
2022-09-12T06:21:44.891Z,100.00
2022-09-12T06:24:13.062Z,100.00
2022-09-12T06:26:41.198Z,100.00
2022-09-12T06:29:11.409Z,100.00
2022-09-12T06:31:41.370Z,100.00
2022-09-12T06:34:11.479Z,100.00
2022-09-12T06:36:41.684Z,100.00
2022-09-12T06:39:11.148Z,100.00
2022-09-12T06:41:43.761Z,100.00
2022-09-12T06:44:15.980Z,100.00
2022-09-12T06:46:44.318Z,100.00
2022-09-12T06:49:12.839Z,100.00
2022-09-12T06:51:41.988Z,100.00
2022-09-12T06:54:10.742Z,100.00
2022-09-12T06:56:38.864Z,100.00
2022-09-12T06:59:06.693Z,100.00
2022-09-12T07:01:35.934Z,100.00
2022-09-12T07:04:05.265Z,100.00
2022-09-12T07:06:38.104Z,100.00
2022-09-12T07:09:09.198Z,100.00
2022-09-12T07:11:38.491Z,100.00
2022-09-12T07:14:07.926Z,100.00
2022-09-12T07:16:37.659Z,100.00
2022-09-12T07:19:08.281Z,100.00
2022-09-12T07:21:39.978Z,100.00
2022-09-12T07:24:09.615Z,100.00
2022-09-12T07:26:37.737Z,100.00
2022-09-12T07:29:34.897Z,100.00
2022-09-12T07:31:55.709Z,100.00
2022-09-12T07:34:23.564Z,100.00
2022-09-12T07:36:51.652Z,100.00
2022-09-12T07:39:20.070Z,100.00
2022-09-12T07:41:48.069Z,100.00
2022-09-12T07:44:16.044Z,100.00
2022-09-12T07:46:43.910Z,100.00
2022-09-12T07:49:14.530Z,100.00
2022-09-12T07:51:42.390Z,100.00
2022-09-12T07:54:11.148Z,100.00
2022-09-12T07:56:40.904Z,100.00
2022-09-12T07:59:09.186Z,100.00
2022-09-12T08:01:37.167Z,100.00
2022-09-12T08:04:06.072Z,100.00
2022-09-12T08:06:36.977Z,100.00
2022-09-12T08:09:07.832Z,100.00
2022-09-12T08:11:35.843Z,100.00
2022-09-12T08:14:05.832Z,100.00
2022-09-12T08:16:34.754Z,100.00
2022-09-12T08:19:03.558Z,100.00
2022-09-12T08:21:33.295Z,100.00
2022-09-12T08:24:04.676Z,100.00
2022-09-12T08:26:34.735Z,100.00
2022-09-12T08:29:04.113Z,100.00
2022-09-12T08:31:36.562Z,100.00
2022-09-12T08:34:06.124Z,100.00
2022-09-12T08:36:34.537Z,100.00
2022-09-12T08:39:07.353Z,100.00
2022-09-12T08:41:39.931Z,100.00
2022-09-12T08:44:40.413Z,100.00
2022-09-12T08:47:18.300Z,100.00
2022-09-12T08:49:54.702Z,100.00
2022-09-12T08:52:28.301Z,100.00
2022-09-12T08:54:58.598Z,100.00
2022-09-12T08:57:26.685Z,97.07
2022-09-12T08:59:55.097Z,98.73
2022-09-12T09:02:45.860Z,91.40
2022-09-12T09:05:20.890Z,92.62
2022-09-12T09:08:10.718Z,92.49
2022-09-12T09:10:49.314Z,90.52
2022-09-12T09:13:56.705Z,88.07
2022-09-12T09:16:32.060Z,89.17
2022-09-12T09:19:03.616Z,86.33
2022-09-12T09:21:38.645Z,90.32
2022-09-12T09:24:11.172Z,88.39
2022-09-12T09:26:46.394Z,85.61
2022-09-12T09:29:18.939Z,88.90
2022-09-12T09:31:49.983Z,89.14
2022-09-12T09:34:21.797Z,85.90
2022-09-12T09:36:53.371Z,86.80
2022-09-12T09:39:32.677Z,87.02
2022-09-12T09:42:14.009Z,85.73
2022-09-12T09:44:42.193Z,86.76
2022-09-12T09:47:12.787Z,84.20
2022-09-12T09:49:40.869Z,85.89
2022-09-12T09:52:10.293Z,87.55
2022-09-12T09:54:42.906Z,84.90
2022-09-12T09:57:44.590Z,82.24
2022-09-12T10:00:30.585Z,84.23
2022-09-12T10:03:04.717Z,85.18
2022-09-12T10:05:35.639Z,81.39
2022-09-12T10:08:11.407Z,79.00
2022-09-12T10:10:39.367Z,77.48
2022-09-12T10:13:11.507Z,82.06
2022-09-12T10:15:39.581Z,79.62
2022-09-12T10:18:07.518Z,79.83
2022-09-12T10:20:38.841Z,79.02
2022-09-12T10:23:30.196Z,78.56
2022-09-12T10:26:01.846Z,81.00
2022-09-12T10:28:37.392Z,76.73
2022-09-12T10:31:06.209Z,73.96
2022-09-12T10:33:43.460Z,74.39
2022-09-12T10:36:12.342Z,72.47
2022-09-12T10:38:40.427Z,76.10
2022-09-12T10:41:11.339Z,76.25
2022-09-12T10:43:42.365Z,72.51
2022-09-12T10:46:28.750Z,71.89
2022-09-12T10:49:31.474Z,70.95
2022-09-12T10:52:18.463Z,72.19
2022-09-12T10:54:46.688Z,71.63
2022-09-12T10:57:44.275Z,71.22
2022-09-12T11:00:17.941Z,71.58
2022-09-12T11:02:56.354Z,71.56
2022-09-12T11:05:39.032Z,69.88
2022-09-12T11:08:22.765Z,71.71
2022-09-12T11:10:58.648Z,70.32
2022-09-12T11:13:50.253Z,69.76
2022-09-12T11:16:28.145Z,68.26
2022-09-12T11:19:14.116Z,69.80
2022-09-12T11:22:04.246Z,68.57
2022-09-12T11:24:54.238Z,68.44
2022-09-12T11:27:35.034Z,71.36
2022-09-12T11:30:07.531Z,71.15
2022-09-12T11:33:05.848Z,69.98
2022-09-12T11:35:36.851Z,69.82
2022-09-12T11:38:34.195Z,69.75
2022-09-12T11:41:04.861Z,72.06
2022-09-12T11:43:39.582Z,70.34
2022-09-12T11:46:15.677Z,71.48
2022-09-12T11:48:49.072Z,70.47
2022-09-12T11:51:27.159Z,69.81
2022-09-12T11:54:05.797Z,71.16
2022-09-12T11:56:39.345Z,68.71
2022-09-12T11:59:16.895Z,71.17
2022-09-12T12:01:49.465Z,66.13
2022-09-12T12:04:25.906Z,72.26
2022-09-12T12:07:03.533Z,74.05
2022-09-12T12:09:32.049Z,68.04
2022-09-12T12:12:04.677Z,66.48
2022-09-12T12:14:39.741Z,68.84
2022-09-12T12:17:15.566Z,71.18
2022-09-12T12:19:44.083Z,69.06
2022-09-12T12:22:19.376Z,70.25
2022-09-12T12:25:08.047Z,67.57
2022-09-12T12:27:52.020Z,66.64
2022-09-12T12:31:05.635Z,67.50
2022-09-12T12:34:15.806Z,67.16
2022-09-12T12:36:44.792Z,65.88
2022-09-12T12:40:05.998Z,66.40
2022-09-12T12:43:31.544Z,69.36
2022-09-12T12:46:11.701Z,66.91
2022-09-12T12:48:57.958Z,66.21
2022-09-12T12:51:36.396Z,68.10
2022-09-12T12:54:12.338Z,65.03
2022-09-12T12:56:43.101Z,64.73
2022-09-12T12:59:17.485Z,63.75
2022-09-12T13:01:52.800Z,66.07
2022-09-12T13:04:26.055Z,65.80
2022-09-12T13:07:05.841Z,65.77
2022-09-12T13:09:40.189Z,66.98
2022-09-12T13:12:11.699Z,62.56
2022-09-12T13:14:54.557Z,62.26
2022-09-12T13:17:31.634Z,62.43
2022-09-12T13:20:28.957Z,59.49
2022-09-12T13:22:58.991Z,61.48
2022-09-12T13:25:30.416Z,62.00
2022-09-12T13:27:59.683Z,61.99
2022-09-12T13:30:30.019Z,60.20
2022-09-12T13:32:59.975Z,60.56
2022-09-12T13:35:38.687Z,57.01
2022-09-12T13:38:16.129Z,57.23
2022-09-12T13:40:58.205Z,58.48
2022-09-12T13:43:37.804Z,60.67
2022-09-12T13:46:08.455Z,56.28
2022-09-12T13:48:36.563Z,57.76
2022-09-12T13:51:06.130Z,56.81
2022-09-12T13:53:43.411Z,56.89
2022-09-12T13:56:18.013Z,56.25
2022-09-12T13:58:54.198Z,54.96
2022-09-12T14:01:24.480Z,52.21
2022-09-12T14:04:12.085Z,54.20
2022-09-12T14:06:49.689Z,53.64
2022-09-12T14:09:25.263Z,49.28
2022-09-12T14:11:54.496Z,50.06
2022-09-12T14:14:31.196Z,51.50
2022-09-12T14:17:00.818Z,53.05
2022-09-12T14:19:29.881Z,53.03
2022-09-12T14:21:59.047Z,54.08
2022-09-12T14:24:27.382Z,54.04
2022-09-12T14:26:57.741Z,52.71
2022-09-12T14:29:26.624Z,53.46
2022-09-12T14:32:06.976Z,51.51
2022-09-12T14:34:34.952Z,53.26
2022-09-12T14:37:08.733Z,51.65
2022-09-12T14:39:41.282Z,51.90
2022-09-12T14:42:17.591Z,54.24
2022-09-12T14:44:56.137Z,55.67
2022-09-12T14:47:28.129Z,55.90
2022-09-12T14:49:56.211Z,52.32
2022-09-12T14:52:30.201Z,52.18
2022-09-12T14:55:00.127Z,53.88
2022-09-12T14:57:40.210Z,54.70
2022-09-12T15:00:16.184Z,55.87
2022-09-12T15:02:46.009Z,55.34
2022-09-12T15:05:23.083Z,56.27
2022-09-12T15:07:56.459Z,54.21
2022-09-12T15:10:28.606Z,50.06
2022-09-12T15:13:14.309Z,53.08
2022-09-12T15:15:45.012Z,52.42
2022-09-12T15:18:15.042Z,51.16
2022-09-12T15:20:45.100Z,52.44
2022-09-12T15:23:17.027Z,51.76
2022-09-12T15:25:45.277Z,56.48
2022-09-12T15:28:20.134Z,56.28
2022-09-12T15:30:51.278Z,56.12
2022-09-12T15:33:22.951Z,52.53
2022-09-12T15:35:52.298Z,51.82
2022-09-12T15:38:24.397Z,51.46
2022-09-12T15:40:54.977Z,52.57
2022-09-12T15:43:24.953Z,56.71
2022-09-12T15:45:53.419Z,54.89
2022-09-12T15:48:22.891Z,53.79
2022-09-12T15:50:50.949Z,54.30
2022-09-12T15:53:18.878Z,54.40
2022-09-12T15:55:46.786Z,52.14
2022-09-12T15:58:14.683Z,52.06
2022-09-12T16:00:42.672Z,53.36
2022-09-12T16:03:21.016Z,51.01
2022-09-12T16:05:50.827Z,50.75
2022-09-12T16:08:18.765Z,50.87
2022-09-12T16:10:48.930Z,51.22
2022-09-12T16:13:16.611Z,51.83
2022-09-12T16:15:44.521Z,51.44
2022-09-12T16:18:13.111Z,51.07
2022-09-12T16:20:41.658Z,51.13
2022-09-12T16:23:12.572Z,51.28
2022-09-12T16:25:41.067Z,52.84
2022-09-12T16:28:08.925Z,52.29
2022-09-12T16:30:37.415Z,55.43
2022-09-12T16:33:05.440Z,57.38
2022-09-12T16:35:33.700Z,57.17
2022-09-12T16:38:01.997Z,59.73
2022-09-12T16:40:31.548Z,57.37
2022-09-12T16:42:59.405Z,59.84
2022-09-12T16:45:27.360Z,59.94
2022-09-12T16:47:55.596Z,61.93
2022-09-12T16:50:23.821Z,60.56
2022-09-12T16:52:51.740Z,61.39
2022-09-12T16:55:19.632Z,63.05
2022-09-12T16:57:49.488Z,63.50
2022-09-12T17:00:17.624Z,64.68
2022-09-12T17:02:45.745Z,67.82
2022-09-12T17:05:15.970Z,68.24
2022-09-12T17:07:43.637Z,70.00
2022-09-12T17:10:11.591Z,72.60
2022-09-12T17:12:39.514Z,74.59
2022-09-12T17:15:09.934Z,75.92
2022-09-12T17:17:38.087Z,77.17
2022-09-12T17:20:06.552Z,78.20
2022-09-12T17:22:35.056Z,80.37
2022-09-12T17:25:02.884Z,81.06
2022-09-12T17:27:30.781Z,81.74
2022-09-12T17:29:58.683Z,79.08
2022-09-12T17:32:27.852Z,80.78
2022-09-12T17:34:55.713Z,81.26
2022-09-12T17:37:23.586Z,81.63
2022-09-12T17:39:51.639Z,82.07
2022-09-12T17:42:20.763Z,82.93
2022-09-12T17:44:48.650Z,82.14
2022-09-12T17:47:16.980Z,83.18
2022-09-12T17:49:46.222Z,84.07
2022-09-12T17:52:14.370Z,83.17
2022-09-12T17:54:42.305Z,83.24
2022-09-12T17:57:10.192Z,84.73
2022-09-12T17:59:38.105Z,85.54
2022-09-12T18:02:14.440Z,85.73
2022-09-12T18:04:45.855Z,85.93
2022-09-12T18:07:16.115Z,86.04
2022-09-12T18:09:43.913Z,86.61
2022-09-12T18:12:20.246Z,86.36
2022-09-12T18:14:48.560Z,85.77
2022-09-12T18:17:16.667Z,86.26
2022-09-12T18:19:44.689Z,86.59
2022-09-12T18:22:13.113Z,86.12
2022-09-12T18:24:42.332Z,87.04
2022-09-12T18:27:13.499Z,87.30
2022-09-12T18:29:41.423Z,88.08
2022-09-12T18:32:09.465Z,88.43
2022-09-12T18:34:45.060Z,89.38
2022-09-12T18:37:20.369Z,89.62
2022-09-12T18:39:50.108Z,89.49
2022-09-12T18:42:18.061Z,90.71
2022-09-12T18:44:46.151Z,91.33
2022-09-12T18:47:26.087Z,92.39
2022-09-12T18:49:53.984Z,93.88
2022-09-12T18:52:22.168Z,93.50
2022-09-12T18:54:51.571Z,94.32
2022-09-12T18:57:19.506Z,95.41
2022-09-12T18:59:47.809Z,96.39
2022-09-12T19:02:17.214Z,96.32
2022-09-12T19:04:48.467Z,97.15
2022-09-12T19:07:17.632Z,97.04
2022-09-12T19:09:56.772Z,96.49
2022-09-12T19:12:35.799Z,96.61
2022-09-12T19:15:06.826Z,96.60
2022-09-12T19:18:00.097Z,97.51
2022-09-12T19:20:28.097Z,99.48
2022-09-12T19:22:56.026Z,99.93
2022-09-12T19:25:25.440Z,100.00
2022-09-12T19:27:59.011Z,100.00
2022-09-12T19:30:27.249Z,100.00
2022-09-12T19:32:58.270Z,100.00
2022-09-12T19:35:27.424Z,100.00
2022-09-12T19:37:55.783Z,100.00
2022-09-12T19:43:19.564Z,100.00
2022-09-12T19:45:48.884Z,99.44
2022-09-12T19:48:17.127Z,99.40
2022-09-12T19:50:45.138Z,98.85
2022-09-12T19:53:13.677Z,98.78
2022-09-12T19:55:42.993Z,97.90
2022-09-12T19:58:10.912Z,98.23
2022-09-12T20:00:39.313Z,99.02
2022-09-12T20:03:07.323Z,100.00
2022-09-12T20:05:38.499Z,100.00
2022-09-12T20:08:10.087Z,100.00
2022-09-12T20:10:37.930Z,100.00
2022-09-12T20:13:07.565Z,100.00
2022-09-12T20:15:35.563Z,100.00
2022-09-12T20:18:03.739Z,100.00
2022-09-12T20:20:32.657Z,100.00
2022-09-12T20:23:00.539Z,100.00
2022-09-12T20:25:28.409Z,100.00
2022-09-12T20:28:00.037Z,100.00
2022-09-12T20:30:29.803Z,100.00
2022-09-12T20:32:57.785Z,100.00
2022-09-12T20:35:25.819Z,100.00
2022-09-12T20:37:53.714Z,100.00
2022-09-12T20:40:21.654Z,100.00
2022-09-12T20:42:49.644Z,100.00
2022-09-12T20:45:20.024Z,100.00
2022-09-12T20:47:51.401Z,100.00
2022-09-12T20:50:20.151Z,100.00
2022-09-12T20:52:47.977Z,100.00
2022-09-12T20:55:15.942Z,100.00
2022-09-12T20:57:43.822Z,100.00
2022-09-12T21:00:12.911Z,100.00
2022-09-12T21:02:40.951Z,100.00
2022-09-12T21:05:10.822Z,100.00
2022-09-12T21:07:38.774Z,100.00
2022-09-12T21:10:07.496Z,100.00
2022-09-12T21:12:35.408Z,100.00
2022-09-12T21:15:03.324Z,100.00
2022-09-12T21:17:31.351Z,100.00
2022-09-12T21:19:59.228Z,100.00
2022-09-12T21:22:28.473Z,100.00
2022-09-12T21:24:56.298Z,100.00
2022-09-12T21:27:24.210Z,100.00
2022-09-12T21:29:52.280Z,100.00
2022-09-12T21:32:20.157Z,100.00
2022-09-12T21:34:47.956Z,100.00
2022-09-12T21:37:16.414Z,100.00
2022-09-12T21:39:45.705Z,100.00
2022-09-12T21:42:13.665Z,100.00
2022-09-12T21:44:41.407Z,100.00
2022-09-12T21:47:09.290Z,100.00
2022-09-12T21:49:37.169Z,100.00
2022-09-12T21:52:05.367Z,100.00
2022-09-12T21:54:34.975Z,100.00
2022-09-12T21:57:04.409Z,100.00
2022-09-12T21:59:32.332Z,100.00
2022-09-12T22:02:00.403Z,100.00
2022-09-12T22:04:28.274Z,100.00
2022-09-12T22:06:57.432Z,100.00
2022-09-12T22:09:28.820Z,100.00
2022-09-12T22:11:58.855Z,100.00
2022-09-12T22:14:28.171Z,100.00
2022-09-12T22:17:01.732Z,100.00
2022-09-12T22:19:29.890Z,100.00
2022-09-12T22:22:14.944Z,100.00
2022-09-12T22:24:49.056Z,100.00
2022-09-12T22:27:17.736Z,100.00
2022-09-12T22:29:52.956Z,100.00
2022-09-12T22:32:25.056Z,100.00
2022-09-12T22:34:53.046Z,100.00
2022-09-12T22:37:20.889Z,100.00
2022-09-12T22:39:58.284Z,100.00
2022-09-12T22:42:26.288Z,100.00
2022-09-12T22:44:55.602Z,100.00
2022-09-12T22:47:29.347Z,100.00
2022-09-12T22:50:00.340Z,100.00
2022-09-12T22:52:28.235Z,100.00
2022-09-12T22:54:59.257Z,100.00
2022-09-12T22:57:27.181Z,100.00
2022-09-12T22:59:56.414Z,100.00
2022-09-12T23:02:24.674Z,100.00
2022-09-12T23:04:57.963Z,100.00
2022-09-12T23:07:29.864Z,100.00
2022-09-12T23:10:22.414Z,100.00
2022-09-12T23:13:13.916Z,100.00
2022-09-12T23:16:04.405Z,100.00
2022-09-12T23:18:42.160Z,100.00
2022-09-12T23:21:15.394Z,100.00
2022-09-12T23:24:02.011Z,100.00
2022-09-12T23:26:42.070Z,100.00
2022-09-12T23:29:35.302Z,100.00
2022-09-12T23:32:16.564Z,100.00
2022-09-12T23:35:01.341Z,100.00
2022-09-12T23:37:37.032Z,100.00
2022-09-12T23:43:31.728Z,100.00
2022-09-12T23:46:05.057Z,100.00
2022-09-12T23:48:40.661Z,100.00
2022-09-12T23:51:21.333Z,100.00
2022-09-12T23:53:57.248Z,100.00
2022-09-12T23:56:38.151Z,100.00
2022-09-12T23:59:12.709Z,100.00
